sensor_id;sensor_type;location;lat;lon;timestamp;temperature;humidity
15906;DHT22;8051;50.820;4.884;2023-06-26T00:00:32;22.30;99.90
15906;DHT22;8051;50.820;4.884;2023-06-26T00:03:00;22.20;99.90
15906;DHT22;8051;50.820;4.884;2023-06-26T00:05:27;22.20;99.90
15906;DHT22;8051;50.820;4.884;2023-06-26T00:07:56;22.20;99.90
15906;DHT22;8051;50.820;4.884;2023-06-26T00:10:27;22.30;99.90
15906;DHT22;8051;50.820;4.884;2023-06-26T00:12:55;22.20;99.90
15906;DHT22;8051;50.820;4.884;2023-06-26T00:15:22;22.20;99.90
15906;DHT22;8051;50.820;4.884;2023-06-26T00:17:50;22.20;99.90
15906;DHT22;8051;50.820;4.884;2023-06-26T00:20:17;22.10;99.90
15906;DHT22;8051;50.820;4.884;2023-06-26T00:22:45;22.00;99.90
15906;DHT22;8051;50.820;4.884;2023-06-26T00:25:12;21.90;99.90
15906;DHT22;8051;50.820;4.884;2023-06-26T00:27:41;21.80;99.90
15906;DHT22;8051;50.820;4.884;2023-06-26T00:30:10;21.60;99.90
15906;DHT22;8051;50.820;4.884;2023-06-26T00:32:37;21.60;99.90
15906;DHT22;8051;50.820;4.884;2023-06-26T00:35:05;21.50;99.90
15906;DHT22;8051;50.820;4.884;2023-06-26T00:37:32;21.50;99.90
15906;DHT22;8051;50.820;4.884;2023-06-26T00:40:00;21.40;99.90
15906;DHT22;8051;50.820;4.884;2023-06-26T00:42:27;21.30;99.90
15906;DHT22;8051;50.820;4.884;2023-06-26T00:44:57;21.30;99.90
15906;DHT22;8051;50.820;4.884;2023-06-26T00:47:25;21.30;99.90
15906;DHT22;8051;50.820;4.884;2023-06-26T00:49:53;21.30;99.90
15906;DHT22;8051;50.820;4.884;2023-06-26T00:52:21;21.20;99.90
15906;DHT22;8051;50.820;4.884;2023-06-26T00:54:49;21.20;99.90
15906;DHT22;8051;50.820;4.884;2023-06-26T00:57:18;21.10;99.90
15906;DHT22;8051;50.820;4.884;2023-06-26T00:59:45;21.10;99.90
15906;DHT22;8051;50.820;4.884;2023-06-26T01:02:15;21.10;99.90
15906;DHT22;8051;50.820;4.884;2023-06-26T01:04:43;21.10;99.90
15906;DHT22;8051;50.820;4.884;2023-06-26T01:07:13;20.90;99.90
15906;DHT22;8051;50.820;4.884;2023-06-26T01:09:41;20.90;99.90
15906;DHT22;8051;50.820;4.884;2023-06-26T01:12:09;20.90;99.90
15906;DHT22;8051;50.820;4.884;2023-06-26T01:14:36;20.80;99.90
15906;DHT22;8051;50.820;4.884;2023-06-26T01:17:04;20.70;99.90
15906;DHT22;8051;50.820;4.884;2023-06-26T01:19:33;20.60;99.90
15906;DHT22;8051;50.820;4.884;2023-06-26T01:22:07;20.60;99.90
15906;DHT22;8051;50.820;4.884;2023-06-26T01:24:44;20.50;99.90
15906;DHT22;8051;50.820;4.884;2023-06-26T01:27:18;20.50;99.90
15906;DHT22;8051;50.820;4.884;2023-06-26T01:29:49;20.50;99.90
15906;DHT22;8051;50.820;4.884;2023-06-26T01:32:17;20.50;99.90
15906;DHT22;8051;50.820;4.884;2023-06-26T01:34:45;20.40;99.90
15906;DHT22;8051;50.820;4.884;2023-06-26T01:37:13;20.30;99.90
15906;DHT22;8051;50.820;4.884;2023-06-26T01:39:40;20.20;99.90
15906;DHT22;8051;50.820;4.884;2023-06-26T01:42:08;20.10;99.90
15906;DHT22;8051;50.820;4.884;2023-06-26T01:44:42;20.10;99.90
15906;DHT22;8051;50.820;4.884;2023-06-26T01:47:13;20.00;99.90
15906;DHT22;8051;50.820;4.884;2023-06-26T01:49:47;20.00;99.90
15906;DHT22;8051;50.820;4.884;2023-06-26T01:52:19;19.90;99.90
15906;DHT22;8051;50.820;4.884;2023-06-26T01:54:55;19.90;99.90
15906;DHT22;8051;50.820;4.884;2023-06-26T01:57:26;19.80;99.90
15906;DHT22;8051;50.820;4.884;2023-06-26T01:59:57;19.80;99.90
15906;DHT22;8051;50.820;4.884;2023-06-26T02:02:25;19.70;99.90
15906;DHT22;8051;50.820;4.884;2023-06-26T02:04:53;19.70;99.90
15906;DHT22;8051;50.820;4.884;2023-06-26T02:07:20;19.70;99.90
15906;DHT22;8051;50.820;4.884;2023-06-26T02:09:48;19.60;99.90
15906;DHT22;8051;50.820;4.884;2023-06-26T02:12:15;19.60;99.90
15906;DHT22;8051;50.820;4.884;2023-06-26T02:14:43;19.60;99.90
15906;DHT22;8051;50.820;4.884;2023-06-26T02:17:12;19.60;99.90
15906;DHT22;8051;50.820;4.884;2023-06-26T02:19:40;19.50;99.90
15906;DHT22;8051;50.820;4.884;2023-06-26T02:22:13;19.40;99.90
15906;DHT22;8051;50.820;4.884;2023-06-26T02:24:41;19.40;99.90
15906;DHT22;8051;50.820;4.884;2023-06-26T02:27:09;19.30;99.90
15906;DHT22;8051;50.820;4.884;2023-06-26T02:29:36;19.30;99.90
15906;DHT22;8051;50.820;4.884;2023-06-26T02:32:03;19.30;99.90
15906;DHT22;8051;50.820;4.884;2023-06-26T02:34:32;19.20;99.90
15906;DHT22;8051;50.820;4.884;2023-06-26T02:37:00;19.30;99.90
15906;DHT22;8051;50.820;4.884;2023-06-26T02:39:27;19.20;99.90
15906;DHT22;8051;50.820;4.884;2023-06-26T02:41:55;19.20;99.90
15906;DHT22;8051;50.820;4.884;2023-06-26T02:44:22;19.20;99.90
15906;DHT22;8051;50.820;4.884;2023-06-26T02:46:50;19.20;99.90
15906;DHT22;8051;50.820;4.884;2023-06-26T02:49:17;19.20;99.90
15906;DHT22;8051;50.820;4.884;2023-06-26T02:51:46;19.10;99.90
15906;DHT22;8051;50.820;4.884;2023-06-26T02:54:13;19.00;99.90
15906;DHT22;8051;50.820;4.884;2023-06-26T02:56:41;19.00;99.90
15906;DHT22;8051;50.820;4.884;2023-06-26T02:59:08;18.90;99.90
15906;DHT22;8051;50.820;4.884;2023-06-26T03:01:36;18.90;99.90
15906;DHT22;8051;50.820;4.884;2023-06-26T03:04:04;18.90;99.90
15906;DHT22;8051;50.820;4.884;2023-06-26T03:06:31;18.90;99.90
15906;DHT22;8051;50.820;4.884;2023-06-26T03:09:00;18.80;99.90
15906;DHT22;8051;50.820;4.884;2023-06-26T03:11:28;18.80;99.90
15906;DHT22;8051;50.820;4.884;2023-06-26T03:13:55;18.80;99.90
15906;DHT22;8051;50.820;4.884;2023-06-26T03:16:23;18.70;99.90
15906;DHT22;8051;50.820;4.884;2023-06-26T03:18:50;18.70;99.90
15906;DHT22;8051;50.820;4.884;2023-06-26T03:21:18;18.70;99.90
15906;DHT22;8051;50.820;4.884;2023-06-26T03:23:47;18.70;99.90
15906;DHT22;8051;50.820;4.884;2023-06-26T03:26:16;18.70;99.90
15906;DHT22;8051;50.820;4.884;2023-06-26T03:28:43;18.70;99.90
15906;DHT22;8051;50.820;4.884;2023-06-26T03:31:10;18.60;99.90
15906;DHT22;8051;50.820;4.884;2023-06-26T03:33:39;18.60;99.90
15906;DHT22;8051;50.820;4.884;2023-06-26T03:36:07;18.50;99.90
15906;DHT22;8051;50.820;4.884;2023-06-26T03:38:35;18.50;99.90
15906;DHT22;8051;50.820;4.884;2023-06-26T03:41:02;18.40;99.90
15906;DHT22;8051;50.820;4.884;2023-06-26T03:43:31;18.40;99.90
15906;DHT22;8051;50.820;4.884;2023-06-26T03:45:59;18.40;99.90
15906;DHT22;8051;50.820;4.884;2023-06-26T03:48:26;18.30;99.90
15906;DHT22;8051;50.820;4.884;2023-06-26T03:50:54;18.30;99.90
15906;DHT22;8051;50.820;4.884;2023-06-26T03:53:21;18.20;99.90
15906;DHT22;8051;50.820;4.884;2023-06-26T03:55:49;18.30;99.90
15906;DHT22;8051;50.820;4.884;2023-06-26T03:58:17;18.20;99.90
15906;DHT22;8051;50.820;4.884;2023-06-26T04:00:45;18.30;99.90
15906;DHT22;8051;50.820;4.884;2023-06-26T04:03:14;18.20;99.90
15906;DHT22;8051;50.820;4.884;2023-06-26T04:05:41;18.20;99.90
15906;DHT22;8051;50.820;4.884;2023-06-26T04:08:09;18.20;99.90
15906;DHT22;8051;50.820;4.884;2023-06-26T04:10:36;18.30;99.90
15906;DHT22;8051;50.820;4.884;2023-06-26T04:13:04;18.30;99.90
15906;DHT22;8051;50.820;4.884;2023-06-26T04:15:31;18.30;99.90
15906;DHT22;8051;50.820;4.884;2023-06-26T04:18:00;18.40;99.90
15906;DHT22;8051;50.820;4.884;2023-06-26T04:20:29;18.30;99.90
15906;DHT22;8051;50.820;4.884;2023-06-26T04:22:56;18.30;99.90
15906;DHT22;8051;50.820;4.884;2023-06-26T04:25:24;18.20;99.90
15906;DHT22;8051;50.820;4.884;2023-06-26T04:27:55;18.20;99.90
15906;DHT22;8051;50.820;4.884;2023-06-26T04:30:22;18.50;99.90
15906;DHT22;8051;50.820;4.884;2023-06-26T04:32:50;18.70;99.90
15906;DHT22;8051;50.820;4.884;2023-06-26T04:35:19;18.80;99.90
15906;DHT22;8051;50.820;4.884;2023-06-26T04:37:47;19.00;99.90
15906;DHT22;8051;50.820;4.884;2023-06-26T04:40:15;19.10;99.90
15906;DHT22;8051;50.820;4.884;2023-06-26T04:42:42;19.30;99.90
15906;DHT22;8051;50.820;4.884;2023-06-26T04:45:09;19.30;99.90
15906;DHT22;8051;50.820;4.884;2023-06-26T04:47:37;19.20;99.90
15906;DHT22;8051;50.820;4.884;2023-06-26T04:50:06;19.30;99.90
15906;DHT22;8051;50.820;4.884;2023-06-26T04:52:36;19.20;99.90
15906;DHT22;8051;50.820;4.884;2023-06-26T04:55:04;19.20;99.90
15906;DHT22;8051;50.820;4.884;2023-06-26T04:57:32;19.30;99.90
15906;DHT22;8051;50.820;4.884;2023-06-26T04:59:59;19.50;99.90
15906;DHT22;8051;50.820;4.884;2023-06-26T05:02:27;19.50;99.90
15906;DHT22;8051;50.820;4.884;2023-06-26T05:04:55;19.60;99.90
15906;DHT22;8051;50.820;4.884;2023-06-26T05:07:22;19.50;99.90
15906;DHT22;8051;50.820;4.884;2023-06-26T05:09:51;19.50;99.90
15906;DHT22;8051;50.820;4.884;2023-06-26T05:12:18;19.40;99.90
15906;DHT22;8051;50.820;4.884;2023-06-26T05:14:46;19.30;99.90
15906;DHT22;8051;50.820;4.884;2023-06-26T05:17:14;19.50;99.90
15906;DHT22;8051;50.820;4.884;2023-06-26T05:19:42;19.60;99.90
15906;DHT22;8051;50.820;4.884;2023-06-26T05:22:10;19.60;99.90
15906;DHT22;8051;50.820;4.884;2023-06-26T05:24:38;19.70;99.90
15906;DHT22;8051;50.820;4.884;2023-06-26T05:27:09;19.80;99.90
15906;DHT22;8051;50.820;4.884;2023-06-26T05:29:37;19.60;99.90
15906;DHT22;8051;50.820;4.884;2023-06-26T05:32:05;19.60;99.90
15906;DHT22;8051;50.820;4.884;2023-06-26T05:34:33;19.90;99.90
15906;DHT22;8051;50.820;4.884;2023-06-26T05:37:01;20.00;99.90
15906;DHT22;8051;50.820;4.884;2023-06-26T05:39:30;20.00;99.90
15906;DHT22;8051;50.820;4.884;2023-06-26T05:41:58;19.90;99.90
15906;DHT22;8051;50.820;4.884;2023-06-26T05:44:27;19.80;99.90
15906;DHT22;8051;50.820;4.884;2023-06-26T05:46:54;19.80;99.90
15906;DHT22;8051;50.820;4.884;2023-06-26T05:49:22;19.90;99.90
15906;DHT22;8051;50.820;4.884;2023-06-26T05:51:50;19.90;99.90
15906;DHT22;8051;50.820;4.884;2023-06-26T05:54:18;19.90;99.90
15906;DHT22;8051;50.820;4.884;2023-06-26T05:56:46;20.10;99.90
15906;DHT22;8051;50.820;4.884;2023-06-26T05:59:15;20.10;99.90
15906;DHT22;8051;50.820;4.884;2023-06-26T06:01:45;20.30;99.90
15906;DHT22;8051;50.820;4.884;2023-06-26T06:04:13;20.30;99.90
15906;DHT22;8051;50.820;4.884;2023-06-26T06:06:40;20.20;99.90
15906;DHT22;8051;50.820;4.884;2023-06-26T06:09:08;20.10;99.90
15906;DHT22;8051;50.820;4.884;2023-06-26T06:11:35;20.20;99.90
15906;DHT22;8051;50.820;4.884;2023-06-26T06:14:03;20.30;99.90
15906;DHT22;8051;50.820;4.884;2023-06-26T06:16:31;20.40;99.90
15906;DHT22;8051;50.820;4.884;2023-06-26T06:18:59;20.50;99.90
15906;DHT22;8051;50.820;4.884;2023-06-26T06:21:29;20.50;99.90
15906;DHT22;8051;50.820;4.884;2023-06-26T06:23:56;20.50;99.90
15906;DHT22;8051;50.820;4.884;2023-06-26T06:26:24;20.50;99.90
15906;DHT22;8051;50.820;4.884;2023-06-26T06:28:51;20.60;99.90
15906;DHT22;8051;50.820;4.884;2023-06-26T06:31:19;20.50;99.90
15906;DHT22;8051;50.820;4.884;2023-06-26T06:33:46;20.50;99.90
15906;DHT22;8051;50.820;4.884;2023-06-26T06:36:15;20.30;99.90
15906;DHT22;8051;50.820;4.884;2023-06-26T06:38:43;20.20;99.90
15906;DHT22;8051;50.820;4.884;2023-06-26T06:41:10;20.10;99.90
15906;DHT22;8051;50.820;4.884;2023-06-26T06:43:38;19.90;99.90
15906;DHT22;8051;50.820;4.884;2023-06-26T06:46:06;20.00;99.90
15906;DHT22;8051;50.820;4.884;2023-06-26T06:48:33;20.10;99.90
15906;DHT22;8051;50.820;4.884;2023-06-26T06:51:01;20.10;99.90
15906;DHT22;8051;50.820;4.884;2023-06-26T06:53:31;20.10;99.90
15906;DHT22;8051;50.820;4.884;2023-06-26T06:55:59;20.20;99.90
15906;DHT22;8051;50.820;4.884;2023-06-26T06:58:26;20.00;99.90
15906;DHT22;8051;50.820;4.884;2023-06-26T07:00:54;20.10;99.90
15906;DHT22;8051;50.820;4.884;2023-06-26T07:03:21;20.10;99.90
15906;DHT22;8051;50.820;4.884;2023-06-26T07:05:49;20.20;99.90
15906;DHT22;8051;50.820;4.884;2023-06-26T07:08:16;20.30;99.90
15906;DHT22;8051;50.820;4.884;2023-06-26T07:10:46;20.40;99.90
15906;DHT22;8051;50.820;4.884;2023-06-26T07:13:14;20.50;99.90
15906;DHT22;8051;50.820;4.884;2023-06-26T07:15:41;20.20;99.90
15906;DHT22;8051;50.820;4.884;2023-06-26T07:18:08;20.10;99.90
15906;DHT22;8051;50.820;4.884;2023-06-26T07:20:36;20.20;99.90
15906;DHT22;8051;50.820;4.884;2023-06-26T07:23:03;20.20;99.90
15906;DHT22;8051;50.820;4.884;2023-06-26T07:25:31;20.20;99.90
15906;DHT22;8051;50.820;4.884;2023-06-26T07:28:00;20.40;99.90
15906;DHT22;8051;50.820;4.884;2023-06-26T07:30:27;20.50;99.90
15906;DHT22;8051;50.820;4.884;2023-06-26T07:32:55;20.60;99.90
15906;DHT22;8051;50.820;4.884;2023-06-26T07:35:22;20.40;99.90
15906;DHT22;8051;50.820;4.884;2023-06-26T07:37:51;20.40;99.90
15906;DHT22;8051;50.820;4.884;2023-06-26T07:40:18;20.40;99.90
15906;DHT22;8051;50.820;4.884;2023-06-26T07:42:46;20.50;99.90
15906;DHT22;8051;50.820;4.884;2023-06-26T07:45:15;20.30;99.90
15906;DHT22;8051;50.820;4.884;2023-06-26T07:47:42;20.30;99.90
15906;DHT22;8051;50.820;4.884;2023-06-26T07:50:10;20.40;99.90
15906;DHT22;8051;50.820;4.884;2023-06-26T07:52:38;20.50;99.90
15906;DHT22;8051;50.820;4.884;2023-06-26T07:55:06;20.40;99.90
15906;DHT22;8051;50.820;4.884;2023-06-26T07:57:33;20.50;99.90
15906;DHT22;8051;50.820;4.884;2023-06-26T08:00:00;20.50;99.90
15906;DHT22;8051;50.820;4.884;2023-06-26T08:02:29;20.60;99.90
15906;DHT22;8051;50.820;4.884;2023-06-26T08:04:57;20.60;99.90
15906;DHT22;8051;50.820;4.884;2023-06-26T08:07:25;20.70;99.90
15906;DHT22;8051;50.820;4.884;2023-06-26T08:09:52;20.70;99.90
15906;DHT22;8051;50.820;4.884;2023-06-26T08:12:19;20.60;99.90
15906;DHT22;8051;50.820;4.884;2023-06-26T08:14:47;20.80;99.90
15906;DHT22;8051;50.820;4.884;2023-06-26T08:17:15;21.00;99.90
15906;DHT22;8051;50.820;4.884;2023-06-26T08:19:43;21.10;99.90
15906;DHT22;8051;50.820;4.884;2023-06-26T08:22:11;21.20;99.90
15906;DHT22;8051;50.820;4.884;2023-06-26T08:24:38;21.20;99.90
15906;DHT22;8051;50.820;4.884;2023-06-26T08:27:06;21.20;99.90
15906;DHT22;8051;50.820;4.884;2023-06-26T08:29:34;21.10;99.90
15906;DHT22;8051;50.820;4.884;2023-06-26T08:32:01;21.00;99.90
15906;DHT22;8051;50.820;4.884;2023-06-26T08:34:29;21.20;99.90
15906;DHT22;8051;50.820;4.884;2023-06-26T08:36:58;21.20;99.90
15906;DHT22;8051;50.820;4.884;2023-06-26T08:39:25;21.50;99.90
15906;DHT22;8051;50.820;4.884;2023-06-26T08:41:53;21.60;99.90
15906;DHT22;8051;50.820;4.884;2023-06-26T08:44:20;21.80;99.90
15906;DHT22;8051;50.820;4.884;2023-06-26T08:46:51;21.90;99.90
15906;DHT22;8051;50.820;4.884;2023-06-26T08:49:21;21.90;99.90
15906;DHT22;8051;50.820;4.884;2023-06-26T08:51:59;21.90;99.90
15906;DHT22;8051;50.820;4.884;2023-06-26T08:54:34;21.80;99.90
15906;DHT22;8051;50.820;4.884;2023-06-26T08:57:02;21.90;99.90
15906;DHT22;8051;50.820;4.884;2023-06-26T08:59:32;22.10;99.90
15906;DHT22;8051;50.820;4.884;2023-06-26T09:01:59;22.00;99.90
15906;DHT22;8051;50.820;4.884;2023-06-26T09:04:28;21.90;99.90
15906;DHT22;8051;50.820;4.884;2023-06-26T09:06:57;22.10;99.90
15906;DHT22;8051;50.820;4.884;2023-06-26T09:09:25;22.10;99.90
15906;DHT22;8051;50.820;4.884;2023-06-26T09:11:53;22.30;99.90
15906;DHT22;8051;50.820;4.884;2023-06-26T09:14:21;22.40;99.90
15906;DHT22;8051;50.820;4.884;2023-06-26T09:16:49;22.30;99.90
15906;DHT22;8051;50.820;4.884;2023-06-26T09:19:16;22.10;99.90
15906;DHT22;8051;50.820;4.884;2023-06-26T09:21:44;22.10;99.90
15906;DHT22;8051;50.820;4.884;2023-06-26T09:24:13;22.10;99.90
15906;DHT22;8051;50.820;4.884;2023-06-26T09:26:40;22.10;99.90
15906;DHT22;8051;50.820;4.884;2023-06-26T09:29:09;22.30;99.90
15906;DHT22;8051;50.820;4.884;2023-06-26T09:31:37;22.10;99.90
15906;DHT22;8051;50.820;4.884;2023-06-26T09:34:05;22.20;99.90
15906;DHT22;8051;50.820;4.884;2023-06-26T09:36:33;22.30;99.90
15906;DHT22;8051;50.820;4.884;2023-06-26T09:39:03;22.50;99.90
15906;DHT22;8051;50.820;4.884;2023-06-26T09:41:35;22.50;99.90
15906;DHT22;8051;50.820;4.884;2023-06-26T09:44:05;22.80;99.90
15906;DHT22;8051;50.820;4.884;2023-06-26T09:46:34;22.70;99.90
15906;DHT22;8051;50.820;4.884;2023-06-26T09:49:05;22.40;99.90
15906;DHT22;8051;50.820;4.884;2023-06-26T09:51:34;22.00;99.90
15906;DHT22;8051;50.820;4.884;2023-06-26T09:54:02;22.10;99.90
15906;DHT22;8051;50.820;4.884;2023-06-26T09:56:30;22.10;99.90
15906;DHT22;8051;50.820;4.884;2023-06-26T09:59:01;22.30;99.90
15906;DHT22;8051;50.820;4.884;2023-06-26T10:01:29;22.30;99.90
15906;DHT22;8051;50.820;4.884;2023-06-26T10:03:56;22.30;99.90
15906;DHT22;8051;50.820;4.884;2023-06-26T10:06:27;22.40;99.90
15906;DHT22;8051;50.820;4.884;2023-06-26T10:08:58;22.10;99.90
15906;DHT22;8051;50.820;4.884;2023-06-26T10:11:32;21.80;99.90
15906;DHT22;8051;50.820;4.884;2023-06-26T10:14:03;22.10;99.90
15906;DHT22;8051;50.820;4.884;2023-06-26T10:16:32;22.20;99.90
15906;DHT22;8051;50.820;4.884;2023-06-26T10:19:05;22.40;99.90
15906;DHT22;8051;50.820;4.884;2023-06-26T10:21:34;22.30;99.90
15906;DHT22;8051;50.820;4.884;2023-06-26T10:24:03;22.00;99.90
15906;DHT22;8051;50.820;4.884;2023-06-26T10:26:35;21.80;99.90
15906;DHT22;8051;50.820;4.884;2023-06-26T10:29:07;21.70;99.90
15906;DHT22;8051;50.820;4.884;2023-06-26T10:31:36;21.70;99.90
15906;DHT22;8051;50.820;4.884;2023-06-26T10:34:05;22.20;99.90
15906;DHT22;8051;50.820;4.884;2023-06-26T10:36:32;22.70;99.90
15906;DHT22;8051;50.820;4.884;2023-06-26T10:39:04;22.80;99.90
15906;DHT22;8051;50.820;4.884;2023-06-26T10:41:37;23.20;99.90
15906;DHT22;8051;50.820;4.884;2023-06-26T10:44:10;23.30;99.90
15906;DHT22;8051;50.820;4.884;2023-06-26T10:46:51;23.40;99.90
15906;DHT22;8051;50.820;4.884;2023-06-26T10:49:19;23.30;99.90
15906;DHT22;8051;50.820;4.884;2023-06-26T10:51:48;23.30;99.90
15906;DHT22;8051;50.820;4.884;2023-06-26T10:54:17;23.50;99.90
15906;DHT22;8051;50.820;4.884;2023-06-26T10:56:45;23.90;99.90
15906;DHT22;8051;50.820;4.884;2023-06-26T10:59:18;24.00;99.90
15906;DHT22;8051;50.820;4.884;2023-06-26T11:01:47;24.00;99.90
15906;DHT22;8051;50.820;4.884;2023-06-26T11:04:36;23.50;99.90
15906;DHT22;8051;50.820;4.884;2023-06-26T11:07:19;22.70;99.90
15906;DHT22;8051;50.820;4.884;2023-06-26T11:09:57;22.60;99.90
15906;DHT22;8051;50.820;4.884;2023-06-26T11:12:37;22.80;99.90
15906;DHT22;8051;50.820;4.884;2023-06-26T11:15:09;23.10;99.90
15906;DHT22;8051;50.820;4.884;2023-06-26T11:17:38;23.00;99.90
15906;DHT22;8051;50.820;4.884;2023-06-26T11:20:08;23.10;99.90
15906;DHT22;8051;50.820;4.884;2023-06-26T11:22:36;23.10;99.90
15906;DHT22;8051;50.820;4.884;2023-06-26T11:25:06;23.20;99.90
15906;DHT22;8051;50.820;4.884;2023-06-26T11:27:38;23.10;99.90
15906;DHT22;8051;50.820;4.884;2023-06-26T11:30:08;23.30;99.90
15906;DHT22;8051;50.820;4.884;2023-06-26T11:32:39;23.20;99.90
15906;DHT22;8051;50.820;4.884;2023-06-26T11:35:08;22.90;99.90
15906;DHT22;8051;50.820;4.884;2023-06-26T11:37:35;22.80;99.90
15906;DHT22;8051;50.820;4.884;2023-06-26T11:40:16;22.70;99.90
15906;DHT22;8051;50.820;4.884;2023-06-26T11:42:44;22.70;99.90
15906;DHT22;8051;50.820;4.884;2023-06-26T11:45:12;22.90;99.90
15906;DHT22;8051;50.820;4.884;2023-06-26T11:47:41;22.80;99.90
15906;DHT22;8051;50.820;4.884;2023-06-26T11:50:15;22.80;99.90
15906;DHT22;8051;50.820;4.884;2023-06-26T11:52:42;22.90;99.90
15906;DHT22;8051;50.820;4.884;2023-06-26T11:55:10;23.10;99.90
15906;DHT22;8051;50.820;4.884;2023-06-26T11:57:38;23.40;99.90
15906;DHT22;8051;50.820;4.884;2023-06-26T12:00:13;23.70;99.90
15906;DHT22;8051;50.820;4.884;2023-06-26T12:02:44;24.10;99.90
15906;DHT22;8051;50.820;4.884;2023-06-26T12:05:12;24.00;99.90
15906;DHT22;8051;50.820;4.884;2023-06-26T12:07:41;23.30;99.90
15906;DHT22;8051;50.820;4.884;2023-06-26T12:10:10;23.00;99.90
15906;DHT22;8051;50.820;4.884;2023-06-26T12:12:39;22.90;99.90
15906;DHT22;8051;50.820;4.884;2023-06-26T12:15:07;23.10;99.90
15906;DHT22;8051;50.820;4.884;2023-06-26T12:17:38;23.40;99.90
15906;DHT22;8051;50.820;4.884;2023-06-26T12:20:17;23.70;99.90
15906;DHT22;8051;50.820;4.884;2023-06-26T12:22:46;24.00;99.90
15906;DHT22;8051;50.820;4.884;2023-06-26T12:25:14;23.70;99.90
15906;DHT22;8051;50.820;4.884;2023-06-26T12:27:44;23.70;99.90
15906;DHT22;8051;50.820;4.884;2023-06-26T12:30:13;23.40;99.90
15906;DHT22;8051;50.820;4.884;2023-06-26T12:32:44;23.20;99.90
15906;DHT22;8051;50.820;4.884;2023-06-26T12:35:14;23.30;99.90
15906;DHT22;8051;50.820;4.884;2023-06-26T12:37:43;23.40;99.90
15906;DHT22;8051;50.820;4.884;2023-06-26T12:40:20;23.70;99.90
15906;DHT22;8051;50.820;4.884;2023-06-26T12:42:49;24.10;99.90
15906;DHT22;8051;50.820;4.884;2023-06-26T12:45:16;24.40;99.90
15906;DHT22;8051;50.820;4.884;2023-06-26T12:47:46;24.60;99.90
15906;DHT22;8051;50.820;4.884;2023-06-26T12:50:15;24.90;99.90
15906;DHT22;8051;50.820;4.884;2023-06-26T12:52:43;24.60;99.90
15906;DHT22;8051;50.820;4.884;2023-06-26T12:55:11;24.30;99.90
15906;DHT22;8051;50.820;4.884;2023-06-26T12:57:38;23.70;99.90
15906;DHT22;8051;50.820;4.884;2023-06-26T13:00:07;23.70;99.90
15906;DHT22;8051;50.820;4.884;2023-06-26T13:02:36;23.80;99.90
15906;DHT22;8051;50.820;4.884;2023-06-26T13:05:04;23.80;99.90
15906;DHT22;8051;50.820;4.884;2023-06-26T13:07:32;24.00;99.90
15906;DHT22;8051;50.820;4.884;2023-06-26T13:10:00;24.10;99.90
15906;DHT22;8051;50.820;4.884;2023-06-26T13:12:27;24.30;99.90
15906;DHT22;8051;50.820;4.884;2023-06-26T13:14:55;24.10;99.90
15906;DHT22;8051;50.820;4.884;2023-06-26T13:17:22;23.70;99.90
15906;DHT22;8051;50.820;4.884;2023-06-26T13:19:50;23.60;99.90
15906;DHT22;8051;50.820;4.884;2023-06-26T13:22:17;23.60;99.90
15906;DHT22;8051;50.820;4.884;2023-06-26T13:24:46;23.80;99.90
15906;DHT22;8051;50.820;4.884;2023-06-26T13:27:14;24.20;99.90
15906;DHT22;8051;50.820;4.884;2023-06-26T13:29:42;24.30;99.90
15906;DHT22;8051;50.820;4.884;2023-06-26T13:32:09;24.30;99.90
15906;DHT22;8051;50.820;4.884;2023-06-26T13:34:36;24.00;99.90
15906;DHT22;8051;50.820;4.884;2023-06-26T13:37:04;23.80;99.90
15906;DHT22;8051;50.820;4.884;2023-06-26T13:39:32;23.70;99.90
15906;DHT22;8051;50.820;4.884;2023-06-26T13:42:01;23.80;99.90
15906;DHT22;8051;50.820;4.884;2023-06-26T13:44:28;24.00;99.90
15906;DHT22;8051;50.820;4.884;2023-06-26T13:46:56;24.30;99.90
15906;DHT22;8051;50.820;4.884;2023-06-26T13:49:23;24.30;99.90
15906;DHT22;8051;50.820;4.884;2023-06-26T13:51:51;24.40;99.90
15906;DHT22;8051;50.820;4.884;2023-06-26T13:54:18;24.60;99.90
15906;DHT22;8051;50.820;4.884;2023-06-26T13:56:46;24.60;99.90
15906;DHT22;8051;50.820;4.884;2023-06-26T13:59:15;24.10;99.90
15906;DHT22;8051;50.820;4.884;2023-06-26T14:01:43;24.00;99.90
15906;DHT22;8051;50.820;4.884;2023-06-26T14:04:11;23.70;99.90
15906;DHT22;8051;50.820;4.884;2023-06-26T14:06:38;23.70;99.90
15906;DHT22;8051;50.820;4.884;2023-06-26T14:09:06;23.80;99.90
15906;DHT22;8051;50.820;4.884;2023-06-26T14:11:34;24.00;99.90
15906;DHT22;8051;50.820;4.884;2023-06-26T14:14:02;24.00;99.90
15906;DHT22;8051;50.820;4.884;2023-06-26T14:18:58;24.50;99.90
15906;DHT22;8051;50.820;4.884;2023-06-26T14:21:26;25.00;99.90
15906;DHT22;8051;50.820;4.884;2023-06-26T14:23:54;25.00;99.90
15906;DHT22;8051;50.820;4.884;2023-06-26T14:26:21;24.70;99.90
15906;DHT22;8051;50.820;4.884;2023-06-26T14:28:49;24.50;99.90
15906;DHT22;8051;50.820;4.884;2023-06-26T14:31:16;24.40;99.90
15906;DHT22;8051;50.820;4.884;2023-06-26T14:33:45;24.60;99.90
15906;DHT22;8051;50.820;4.884;2023-06-26T14:36:13;24.90;99.90
15906;DHT22;8051;50.820;4.884;2023-06-26T14:38:40;25.20;99.90
15906;DHT22;8051;50.820;4.884;2023-06-26T14:41:08;25.40;99.90
15906;DHT22;8051;50.820;4.884;2023-06-26T14:43:35;25.00;99.90
15906;DHT22;8051;50.820;4.884;2023-06-26T14:46:03;24.40;99.90
15906;DHT22;8051;50.820;4.884;2023-06-26T14:48:30;24.10;99.90
15906;DHT22;8051;50.820;4.884;2023-06-26T14:50:59;24.10;99.90
15906;DHT22;8051;50.820;4.884;2023-06-26T14:53:27;24.10;99.90
15906;DHT22;8051;50.820;4.884;2023-06-26T14:55:54;24.10;99.90
15906;DHT22;8051;50.820;4.884;2023-06-26T14:58:22;24.10;99.90
15906;DHT22;8051;50.820;4.884;2023-06-26T15:00:50;23.80;99.90
15906;DHT22;8051;50.820;4.884;2023-06-26T15:03:17;24.00;99.90
15906;DHT22;8051;50.820;4.884;2023-06-26T15:05:44;23.90;99.90
15906;DHT22;8051;50.820;4.884;2023-06-26T15:08:13;23.60;99.90
15906;DHT22;8051;50.820;4.884;2023-06-26T15:10:41;23.40;99.90
15906;DHT22;8051;50.820;4.884;2023-06-26T15:13:08;23.40;99.90
15906;DHT22;8051;50.820;4.884;2023-06-26T15:15:36;23.40;99.90
15906;DHT22;8051;50.820;4.884;2023-06-26T15:18:04;23.70;99.90
15906;DHT22;8051;50.820;4.884;2023-06-26T15:20:32;24.10;99.90
15906;DHT22;8051;50.820;4.884;2023-06-26T15:22:59;24.60;99.90
15906;DHT22;8051;50.820;4.884;2023-06-26T15:25:28;25.10;99.90
15906;DHT22;8051;50.820;4.884;2023-06-26T15:27:57;24.80;99.90
15906;DHT22;8051;50.820;4.884;2023-06-26T15:30:24;24.30;99.90
15906;DHT22;8051;50.820;4.884;2023-06-26T15:32:52;23.90;99.90
15906;DHT22;8051;50.820;4.884;2023-06-26T15:35:19;23.80;99.90
15906;DHT22;8051;50.820;4.884;2023-06-26T15:37:47;23.80;99.90
15906;DHT22;8051;50.820;4.884;2023-06-26T15:40:15;23.80;99.90
15906;DHT22;8051;50.820;4.884;2023-06-26T15:42:48;23.90;99.90
15906;DHT22;8051;50.820;4.884;2023-06-26T15:45:16;24.00;99.90
15906;DHT22;8051;50.820;4.884;2023-06-26T15:47:44;24.10;99.90
15906;DHT22;8051;50.820;4.884;2023-06-26T15:50:12;23.70;99.90
15906;DHT22;8051;50.820;4.884;2023-06-26T15:52:39;23.40;99.90
15906;DHT22;8051;50.820;4.884;2023-06-26T15:55:07;23.20;99.90